createdAt,value
2018-02-05T00:01:00.624Z,41.37
2018-02-05T00:03:28.574Z,36.33
2018-02-05T00:05:56.591Z,31.80
2018-02-05T00:08:24.633Z,31.13
2018-02-05T00:10:52.630Z,31.33
2018-02-05T00:13:20.582Z,33.63
2018-02-05T00:15:48.469Z,47.43
2018-02-05T00:18:16.447Z,36.37
2018-02-05T00:20:44.398Z,37.47
2018-02-05T00:23:12.274Z,41.30
2018-02-05T00:25:40.502Z,37.70
2018-02-05T00:28:08.478Z,31.50
2018-02-05T00:30:36.398Z,19.90
2018-02-05T00:33:04.321Z,14.10
2018-02-05T00:35:32.267Z,16.40
2018-02-05T00:38:00.255Z,9.20
2018-02-05T00:40:28.158Z,8.97
2018-02-05T00:42:56.294Z,12.50
2018-02-05T00:45:24.275Z,6.63
2018-02-05T00:47:52.256Z,7.67
2018-02-05T00:50:20.211Z,7.60
2018-02-05T00:52:48.082Z,8.93
2018-02-05T00:55:16.061Z,18.07
2018-02-05T00:57:44.065Z,11.80
2018-02-05T01:00:12.051Z,17.43
2018-02-05T01:02:39.990Z,12.00
2018-02-05T01:05:08.009Z,14.20
2018-02-05T01:07:36.042Z,6.47
2018-02-05T01:10:04.026Z,4.57
2018-02-05T01:12:31.977Z,7.40
2018-02-05T01:14:59.946Z,8.00
2018-02-05T01:17:27.777Z,12.00
2018-02-05T01:19:55.777Z,16.67
2018-02-05T01:22:23.694Z,19.67
2018-02-05T01:24:51.631Z,29.23
2018-02-05T01:27:19.916Z,33.00
2018-02-05T01:29:47.997Z,33.80
2018-02-05T01:32:16.007Z,33.77
2018-02-05T01:34:43.946Z,31.30
2018-02-05T01:37:11.910Z,31.67
2018-02-05T01:39:39.838Z,19.77
2018-02-05T01:42:07.730Z,22.07
2018-02-05T01:44:35.602Z,22.30
2018-02-05T01:47:03.578Z,23.23
2018-02-05T01:49:31.486Z,17.40
2018-02-05T01:51:59.471Z,14.10
2018-02-05T01:54:27.500Z,18.63
2018-02-05T01:56:55.471Z,36.47
2018-02-05T01:59:23.445Z,21.23
2018-02-05T02:01:51.401Z,21.37
2018-02-05T02:04:19.327Z,21.37
2018-02-05T02:06:47.292Z,34.17
2018-02-05T02:09:15.225Z,35.73
2018-02-05T02:11:43.428Z,26.33
2018-02-05T02:14:11.364Z,24.90
2018-02-05T02:16:39.268Z,25.80
2018-02-05T02:19:07.212Z,33.97
2018-02-05T02:21:35.257Z,41.90
2018-02-05T02:24:03.162Z,32.30
2018-02-05T02:26:31.134Z,22.53
2018-02-05T02:28:59.426Z,20.17
2018-02-05T02:31:27.460Z,23.37
2018-02-05T02:33:55.411Z,23.70
2018-02-05T02:36:23.382Z,75.43
2018-02-05T02:38:51.322Z,56.60
2018-02-05T02:41:19.331Z,114.67
2018-02-05T02:43:47.294Z,53.17
2018-02-05T02:46:15.387Z,32.33
2018-02-05T02:48:43.338Z,54.90
2018-02-05T02:51:11.234Z,34.20
2018-02-05T02:53:39.166Z,19.00
2018-02-05T02:56:07.115Z,17.10
2018-02-05T02:58:35.058Z,25.70
2018-02-05T03:01:03.054Z,33.20
2018-02-05T03:03:31.123Z,23.57
2018-02-05T03:05:59.046Z,24.70
2018-02-05T03:08:26.973Z,29.03
2018-02-05T03:10:54.942Z,21.83
2018-02-05T03:13:23.156Z,19.80
2018-02-05T03:15:51.098Z,20.63
2018-02-05T03:18:19.003Z,18.10
2018-02-05T03:20:47.029Z,19.23
2018-02-05T03:23:15.026Z,21.07
2018-02-05T03:25:42.965Z,20.30
2018-02-05T03:28:10.927Z,19.00
2018-02-05T03:30:39.049Z,21.03
2018-02-05T03:33:07.014Z,32.43
2018-02-05T03:35:35.075Z,17.07
2018-02-05T03:38:03.027Z,28.70
2018-02-05T03:40:31.043Z,21.97
2018-02-05T03:42:59.015Z,30.37
2018-02-05T03:45:26.990Z,35.37
2018-02-05T03:47:54.934Z,36.77
2018-02-05T03:50:23.114Z,31.67
2018-02-05T03:52:51.103Z,49.83
2018-02-05T03:55:19.049Z,31.53
2018-02-05T03:57:47.002Z,36.60
2018-02-05T04:00:17.818Z,47.23
2018-02-05T04:02:45.851Z,34.10
2018-02-05T04:05:13.782Z,33.63
2018-02-05T04:07:41.719Z,40.73
2018-02-05T04:10:09.642Z,34.63
2018-02-05T04:12:37.555Z,26.67
2018-02-05T04:15:05.746Z,25.07
2018-02-05T04:17:33.727Z,30.50
2018-02-05T04:20:01.810Z,28.83
2018-02-05T04:22:29.790Z,27.73
2018-02-05T04:24:57.722Z,25.43
2018-02-05T04:27:25.773Z,29.13
2018-02-05T04:29:53.729Z,20.03
2018-02-05T04:32:22.040Z,25.47
2018-02-05T04:34:50.209Z,28.30
2018-02-05T04:37:18.193Z,21.30
2018-02-05T04:39:46.030Z,24.13
2018-02-05T04:42:14.041Z,20.37
2018-02-05T04:44:41.997Z,28.67
2018-02-05T04:47:10.102Z,21.50
2018-02-05T04:49:38.019Z,18.83
2018-02-05T04:52:06.027Z,21.87
2018-02-05T04:54:33.927Z,25.90
2018-02-05T04:57:01.825Z,15.80
2018-02-05T04:59:29.873Z,13.80
2018-02-05T05:01:57.753Z,14.10
2018-02-05T05:04:25.689Z,12.60
2018-02-05T05:06:53.603Z,13.90
2018-02-05T05:09:21.590Z,26.43
2018-02-05T05:11:49.597Z,33.40
2018-02-05T05:14:17.557Z,44.67
2018-02-05T05:16:45.836Z,33.70
2018-02-05T05:19:13.869Z,40.07
2018-02-05T05:21:41.907Z,27.87
2018-02-05T05:24:09.809Z,38.10
2018-02-05T05:26:37.829Z,39.17
2018-02-05T05:29:05.831Z,40.17
2018-02-05T05:31:33.722Z,34.87
2018-02-05T05:34:02.066Z,25.47
2018-02-05T05:36:30.041Z,33.37
2018-02-05T05:38:58.075Z,27.60
2018-02-05T05:41:26.017Z,26.33
2018-02-05T05:43:53.987Z,41.00
2018-02-05T05:46:21.955Z,31.53
2018-02-05T05:48:49.881Z,52.40
2018-02-05T05:51:17.810Z,55.50
2018-02-05T05:53:45.707Z,58.90
2018-02-05T05:56:13.683Z,73.60
2018-02-05T05:58:41.624Z,165.33
2018-02-05T06:01:09.592Z,158.20
2018-02-05T06:03:37.557Z,214.37
2018-02-05T06:06:05.546Z,176.90
2018-02-05T06:08:33.458Z,259.43
2018-02-05T06:11:01.362Z,206.73
2018-02-05T06:13:29.291Z,48.37
2018-02-05T06:15:57.303Z,22.57
2018-02-05T06:18:25.470Z,17.87
2018-02-05T06:20:53.411Z,15.47
2018-02-05T06:23:21.398Z,24.07
2018-02-05T06:25:49.358Z,18.20
2018-02-05T06:28:17.457Z,16.00
2018-02-05T06:30:45.411Z,20.43
2018-02-05T06:33:13.514Z,151.17
2018-02-05T06:35:41.921Z,37.57
2018-02-05T06:38:09.847Z,51.73
2018-02-05T06:40:37.825Z,44.53
2018-02-05T06:43:05.749Z,68.73
2018-02-05T06:45:33.774Z,121.23
2018-02-05T06:48:01.719Z,141.33
2018-02-05T06:50:41.414Z,96.00
2018-02-05T06:53:21.080Z,84.73
2018-02-05T06:55:49.027Z,46.67
2018-02-05T06:58:16.966Z,65.00
2018-02-05T07:00:45.816Z,43.20
2018-02-05T07:03:13.810Z,55.07
2018-02-05T07:05:41.952Z,108.50
2018-02-05T07:08:09.929Z,67.60
2018-02-05T07:10:37.852Z,46.37
2018-02-05T07:13:05.706Z,53.33
2018-02-05T07:15:33.689Z,54.37
2018-02-05T07:18:01.616Z,39.83
2018-02-05T07:20:29.541Z,29.73
2018-02-05T07:22:57.573Z,27.40
2018-02-05T07:25:25.567Z,21.40
2018-02-05T07:27:53.598Z,441.33
2018-02-05T07:30:22.098Z,120.07
2018-02-05T07:32:50.106Z,29.10
2018-02-05T07:35:18.125Z,48.97
2018-02-05T07:37:46.410Z,55.47
2018-02-05T07:40:14.361Z,121.67
2018-02-05T07:42:42.332Z,91.73
2018-02-05T07:45:10.254Z,36.53
2018-02-05T07:47:38.164Z,75.73
2018-02-05T07:50:06.099Z,45.33
2018-02-05T07:52:34.038Z,39.03
2018-02-05T07:55:01.927Z,25.27
2018-02-05T07:57:30.050Z,47.63
2018-02-05T07:59:58.103Z,263.80
2018-02-05T08:02:26.102Z,25.23
2018-02-05T08:04:54.118Z,29.83
2018-02-05T08:07:22.142Z,26.27
2018-02-05T08:09:50.099Z,23.90
2018-02-05T08:12:18.106Z,23.77
2018-02-05T08:14:46.090Z,23.17
2018-02-05T08:17:14.101Z,22.30
2018-02-05T08:19:42.139Z,83.03
2018-02-05T08:22:10.147Z,29.63
2018-02-05T08:24:40.405Z,20.43
2018-02-05T08:27:08.370Z,195.97
2018-02-05T08:29:36.382Z,50.80
2018-02-05T08:32:04.352Z,84.13
2018-02-05T08:34:32.380Z,34.90
2018-02-05T08:37:00.342Z,21.03
2018-02-05T08:39:28.680Z,15.07
2018-02-05T08:41:56.670Z,14.97
2018-02-05T08:44:24.676Z,30.50
2018-02-05T08:46:52.657Z,154.83
2018-02-05T08:49:20.795Z,90.87
2018-02-05T08:51:48.810Z,69.60
2018-02-05T08:54:16.837Z,17.27
2018-02-05T08:56:44.894Z,31.30
2018-02-05T08:59:12.826Z,29.83
2018-02-05T09:01:40.897Z,13.63
2018-02-05T09:04:08.863Z,16.13
2018-02-05T09:06:36.954Z,49.23
2018-02-05T09:09:05.094Z,14.17
2018-02-05T09:11:33.648Z,147.30
2018-02-05T09:14:01.554Z,85.57
2018-02-05T09:16:29.582Z,26.53
2018-02-05T09:18:57.552Z,15.30
2018-02-05T09:21:25.500Z,12.40
2018-02-05T09:23:53.499Z,11.87
2018-02-05T09:26:21.442Z,11.90
2018-02-05T09:28:49.446Z,10.60
2018-02-05T09:31:17.422Z,54.50
2018-02-05T09:33:45.475Z,12.77
2018-02-05T09:36:13.487Z,13.40
2018-02-05T09:38:41.407Z,13.43
2018-02-05T09:41:10.041Z,99.57
2018-02-05T09:43:38.535Z,20.23
2018-02-05T09:46:06.810Z,13.40
2018-02-05T09:48:35.185Z,7.67
2018-02-05T09:51:03.650Z,19.77
2018-02-05T09:53:31.842Z,12.43
2018-02-05T09:56:00.304Z,41.23
2018-02-05T09:58:28.811Z,46.73
2018-02-05T10:00:57.286Z,16.90
2018-02-05T10:03:25.488Z,6.27
2018-02-05T10:05:53.935Z,7.60
2018-02-05T10:08:22.570Z,7.97
2018-02-05T10:10:50.785Z,27.63
2018-02-05T10:13:19.583Z,7.70
2018-02-05T10:15:47.746Z,7.87
2018-02-05T10:18:16.138Z,39.83
2018-02-05T10:20:44.598Z,15.67
2018-02-05T10:23:12.999Z,48.07
2018-02-05T10:25:41.680Z,15.00
2018-02-05T10:28:09.993Z,50.50
2018-02-05T10:30:38.540Z,14.93
2018-02-05T10:33:07.227Z,26.40
2018-02-05T10:35:35.813Z,19.50
2018-02-05T10:38:03.744Z,9.97
2018-02-05T10:40:31.782Z,38.47
2018-02-05T10:43:00.212Z,5.50
2018-02-05T10:45:28.175Z,83.00
2018-02-05T10:47:56.211Z,69.27
2018-02-05T10:50:24.178Z,13.87
2018-02-05T10:52:52.193Z,10.60
2018-02-05T10:55:20.227Z,11.03
2018-02-05T10:57:49.355Z,8.83
2018-02-05T11:00:17.344Z,14.97
2018-02-05T11:02:45.376Z,17.57
2018-02-05T11:05:13.418Z,7.20
2018-02-05T11:07:41.391Z,8.90
2018-02-05T11:10:09.350Z,23.47
2018-02-05T11:12:37.264Z,7.13
2018-02-05T11:15:05.191Z,46.80
2018-02-05T11:17:33.141Z,8.07
2018-02-05T11:20:01.166Z,13.40
2018-02-05T11:22:29.099Z,22.20
2018-02-05T11:24:57.079Z,12.60
2018-02-05T11:27:25.195Z,6.03
2018-02-05T11:29:53.255Z,7.83
2018-02-05T11:32:21.235Z,4.23
2018-02-05T11:34:49.256Z,10.60
2018-02-05T11:37:17.431Z,20.57
2018-02-05T11:39:45.429Z,8.57
2018-02-05T11:42:13.438Z,4.83
2018-02-05T11:44:41.796Z,3.17
2018-02-05T11:47:09.787Z,87.40
2018-02-05T11:49:38.247Z,26.07
2018-02-05T11:52:06.404Z,5.13
2018-02-05T11:54:34.895Z,22.17
2018-02-05T11:57:03.369Z,12.30
2018-02-05T11:59:32.482Z,4.60
2018-02-05T12:02:01.205Z,11.13
2018-02-05T12:04:29.962Z,50.80
2018-02-05T12:06:59.366Z,16.63
2018-02-05T12:09:27.453Z,75.40
2018-02-05T12:11:55.560Z,118.60
2018-02-05T12:14:23.599Z,7.17
2018-02-05T12:16:51.757Z,10.80
2018-02-05T12:19:19.892Z,22.53
2018-02-05T12:21:47.891Z,28.70
2018-02-05T12:24:15.958Z,18.20
2018-02-05T12:26:43.940Z,20.27
2018-02-05T12:29:12.008Z,26.77
2018-02-05T12:31:40.154Z,3.40
2018-02-05T12:34:08.191Z,2.20
2018-02-05T12:36:36.376Z,3.93
2018-02-05T12:39:04.495Z,2.40
2018-02-05T12:41:32.532Z,18.07
2018-02-05T12:44:00.636Z,6.80
2018-02-05T12:46:29.194Z,6.77
2018-02-05T12:48:57.214Z,24.00
2018-02-05T12:51:25.239Z,2.50
2018-02-05T12:53:53.327Z,30.80
2018-02-05T12:56:21.352Z,5.37
2018-02-05T12:58:49.355Z,3.30
2018-02-05T13:04:44.061Z,2.53
2018-02-05T13:07:12.111Z,3.17
2018-02-05T13:09:40.009Z,6.60
2018-02-05T13:12:09.051Z,3.47
2018-02-05T13:14:37.034Z,8.63
2018-02-05T13:17:04.961Z,3.30
2018-02-05T13:19:32.901Z,3.97
2018-02-05T13:22:00.893Z,3.20
2018-02-05T13:24:28.884Z,4.40
2018-02-05T13:26:56.770Z,2.53
2018-02-05T13:29:25.095Z,6.87
2018-02-05T13:31:53.010Z,5.67
2018-02-05T13:34:20.980Z,16.13
2018-02-05T13:36:48.886Z,11.57
2018-02-05T13:39:16.821Z,2.03
2018-02-05T13:41:44.722Z,4.37
2018-02-05T13:44:12.670Z,1.77
2018-02-05T13:46:40.754Z,9.93
2018-02-05T13:49:08.746Z,8.63
2018-02-05T13:51:36.783Z,13.13
2018-02-05T13:54:04.714Z,2.47
2018-02-05T13:56:32.698Z,1.40
2018-02-05T13:59:00.630Z,4.33
2018-02-05T14:01:29.551Z,6.80
2018-02-05T14:03:57.511Z,6.83
2018-02-05T14:06:25.518Z,2.60
2018-02-05T14:08:53.490Z,6.03
2018-02-05T14:11:21.454Z,4.63
2018-02-05T14:13:49.440Z,6.77
2018-02-05T14:16:17.378Z,4.10
2018-02-05T14:18:45.462Z,28.77
2018-02-05T14:21:13.428Z,40.23
2018-02-05T14:23:41.352Z,23.13
2018-02-05T14:26:09.248Z,25.13
2018-02-05T14:28:37.202Z,10.20
2018-02-05T14:31:05.244Z,42.07
2018-02-05T14:33:33.227Z,26.53
2018-02-05T14:36:01.203Z,36.67
2018-02-05T14:38:29.130Z,18.27
2018-02-05T14:40:57.090Z,64.07
2018-02-05T14:43:25.150Z,44.77
2018-02-05T14:45:53.133Z,46.33
2018-02-05T14:48:21.442Z,40.00
2018-02-05T14:50:49.465Z,61.47
2018-02-05T14:53:17.445Z,71.43
2018-02-05T14:55:45.592Z,101.83
2018-02-05T14:58:13.646Z,65.53
2018-02-05T15:00:41.618Z,91.10
2018-02-05T15:03:09.647Z,96.00
2018-02-05T15:05:38.017Z,124.30
2018-02-05T15:08:06.153Z,123.07
2018-02-05T15:10:34.095Z,121.83
2018-02-05T15:13:02.070Z,107.30
2018-02-05T15:15:30.107Z,187.00
2018-02-05T15:17:58.071Z,232.73
2018-02-05T15:20:26.059Z,160.70
2018-02-05T15:22:53.983Z,93.27
2018-02-05T15:25:21.989Z,57.47
2018-02-05T15:27:50.032Z,36.60
2018-02-05T15:30:18.016Z,63.97
2018-02-05T15:32:46.301Z,97.57
2018-02-05T15:35:14.291Z,89.33
2018-02-05T15:37:42.168Z,115.73
2018-02-05T15:40:10.207Z,209.53
2018-02-05T15:42:38.726Z,211.00
2018-02-05T15:45:07.688Z,199.60
2018-02-05T15:47:36.897Z,153.43
2018-02-05T15:50:05.315Z,165.37
2018-02-05T15:52:33.326Z,170.43
2018-02-05T15:55:01.240Z,165.20
2018-02-05T15:57:29.157Z,180.67
2018-02-05T15:59:57.192Z,192.20
2018-02-05T16:02:26.778Z,148.73
2018-02-05T16:04:54.763Z,167.87
2018-02-05T16:07:23.395Z,194.60
2018-02-05T16:09:51.946Z,193.73
2018-02-05T16:12:19.932Z,281.10
2018-02-05T16:14:47.921Z,143.93
2018-02-05T16:17:15.936Z,129.57
2018-02-05T16:19:43.969Z,128.13
2018-02-05T16:22:11.926Z,170.80
2018-02-05T16:24:39.842Z,315.40
2018-02-05T16:27:07.866Z,209.63
2018-02-05T16:29:35.774Z,217.80
2018-02-05T16:32:03.776Z,212.30
2018-02-05T16:34:31.798Z,241.77
2018-02-05T16:36:59.794Z,189.80
2018-02-05T16:39:27.765Z,168.20
2018-02-05T16:41:55.766Z,153.07
2018-02-05T16:44:23.754Z,152.63
2018-02-05T16:46:51.661Z,113.93
2018-02-05T16:49:19.638Z,131.97
2018-02-05T16:51:47.826Z,162.20
2018-02-05T16:54:15.803Z,157.40
2018-02-05T16:56:43.786Z,154.53
2018-02-05T16:59:11.787Z,155.93
2018-02-05T17:01:39.711Z,142.80
2018-02-05T17:04:07.703Z,124.83
2018-02-05T17:06:35.655Z,141.03
2018-02-05T17:09:03.783Z,129.13
2018-02-05T17:11:31.820Z,84.20
2018-02-05T17:13:59.739Z,46.17
2018-02-05T17:16:27.679Z,26.60
2018-02-05T17:18:55.604Z,35.80
2018-02-05T17:21:23.542Z,31.30
2018-02-05T17:23:51.480Z,143.23
2018-02-05T17:26:19.471Z,181.63
2018-02-05T17:28:47.426Z,189.23
2018-02-05T17:31:15.497Z,231.03
2018-02-05T17:33:43.610Z,222.67
2018-02-05T17:36:11.770Z,203.70
2018-02-05T17:38:39.778Z,165.33
2018-02-05T17:41:07.766Z,170.77
2018-02-05T17:43:35.753Z,127.33
2018-02-05T17:46:03.744Z,130.83
2018-02-05T17:48:31.664Z,155.20
2018-02-05T17:50:59.691Z,147.27
2018-02-05T17:53:28.253Z,160.27
2018-02-05T17:55:56.178Z,158.63
2018-02-05T17:58:24.162Z,146.47
2018-02-05T18:00:52.130Z,160.63
2018-02-05T18:03:20.222Z,188.80
2018-02-05T18:05:48.243Z,208.90
2018-02-05T18:08:16.258Z,230.37
2018-02-05T18:10:44.239Z,198.70
2018-02-05T18:13:12.272Z,213.97
2018-02-05T18:15:40.247Z,242.03
2018-02-05T18:18:08.239Z,246.23
2018-02-05T18:20:36.216Z,267.87
2018-02-05T18:23:04.179Z,266.57
2018-02-05T18:25:32.118Z,308.90
2018-02-05T18:28:00.111Z,269.33
2018-02-05T18:30:28.093Z,242.67
2018-02-05T18:32:56.074Z,282.80
2018-02-05T18:35:24.076Z,293.03
2018-02-05T18:37:52.126Z,278.43
2018-02-05T18:40:20.207Z,206.10
2018-02-05T18:42:48.286Z,212.27
2018-02-05T18:45:16.285Z,206.53
2018-02-05T18:47:44.218Z,137.90
2018-02-05T18:50:12.194Z,130.43
2018-02-05T18:52:40.141Z,156.27
2018-02-05T18:55:08.588Z,143.30
2018-02-05T18:57:36.515Z,245.57
2018-02-05T19:00:16.267Z,171.83
2018-02-05T19:02:44.262Z,174.33
2018-02-05T19:05:12.312Z,163.50
2018-02-05T19:07:40.994Z,137.77
2018-02-05T19:10:08.971Z,113.77
2018-02-05T19:12:36.984Z,107.97
2018-02-05T19:15:04.970Z,112.07
2018-02-05T19:17:32.926Z,159.07
2018-02-05T19:20:00.947Z,154.97
2018-02-05T19:22:28.879Z,147.00
2018-02-05T19:24:56.825Z,166.73
2018-02-05T19:27:24.802Z,202.97
2018-02-05T19:29:52.752Z,179.97
2018-02-05T19:32:20.655Z,111.80
2018-02-05T19:34:48.647Z,124.80
2018-02-05T19:37:16.630Z,145.43
2018-02-05T19:39:44.724Z,141.40
2018-02-05T19:42:12.719Z,143.73
2018-02-05T19:44:40.685Z,105.07
2018-02-05T19:47:09.898Z,86.73
2018-02-05T19:49:38.006Z,72.00
2018-02-05T19:52:06.018Z,103.37
2018-02-05T19:54:34.005Z,118.87
2018-02-05T19:57:02.230Z,99.53
2018-02-05T19:59:30.226Z,92.77
2018-02-05T20:01:58.103Z,86.70
2018-02-05T20:04:26.023Z,54.40
2018-02-05T20:06:53.981Z,53.77
2018-02-05T20:09:22.274Z,61.43
2018-02-05T20:11:50.206Z,105.03
2018-02-05T20:14:18.197Z,140.93
2018-02-05T20:16:47.128Z,112.80
2018-02-05T20:19:15.078Z,98.70
2018-02-05T20:21:42.966Z,80.53
2018-02-05T20:24:10.852Z,70.87
2018-02-05T20:26:38.817Z,46.13
2018-02-05T20:29:06.763Z,68.43
2018-02-05T20:31:34.697Z,62.93
2018-02-05T20:34:02.668Z,77.73
2018-02-05T20:36:30.641Z,132.33
2018-02-05T20:38:58.545Z,137.10
2018-02-05T20:41:26.868Z,147.50
2018-02-05T20:43:54.810Z,205.30
2018-02-05T20:46:22.800Z,228.20
2018-02-05T20:48:50.802Z,169.60
2018-02-05T20:51:18.747Z,207.37
2018-02-05T20:53:46.695Z,204.73
2018-02-05T20:56:14.574Z,195.77
2018-02-05T20:58:42.932Z,179.23
2018-02-05T21:01:10.902Z,121.90
2018-02-05T21:03:38.849Z,125.30
2018-02-05T21:06:06.825Z,123.47
2018-02-05T21:08:34.791Z,117.13
2018-02-05T21:11:02.730Z,94.43
2018-02-05T21:13:30.717Z,91.30
2018-02-05T21:15:58.707Z,81.10
2018-02-05T21:18:26.737Z,73.50
2018-02-05T21:20:54.681Z,81.27
2018-02-05T21:23:22.647Z,73.27
2018-02-05T21:25:50.591Z,57.33
2018-02-05T21:28:18.526Z,55.60
2018-02-05T21:30:46.469Z,47.23
2018-02-05T21:33:14.414Z,45.63
2018-02-05T21:35:42.403Z,35.43
2018-02-05T21:38:10.423Z,34.97
2018-02-05T21:40:38.510Z,62.30
2018-02-05T21:43:06.635Z,66.90
2018-02-05T21:45:34.607Z,49.37
2018-02-05T21:48:02.639Z,45.40
2018-02-05T21:50:30.582Z,68.13
2018-02-05T21:52:58.578Z,63.57
2018-02-05T21:55:26.522Z,37.63
2018-02-05T21:57:54.475Z,42.43
2018-02-05T22:00:22.804Z,44.43
2018-02-05T22:02:50.754Z,40.40
2018-02-05T22:05:18.585Z,43.70
2018-02-05T22:07:46.532Z,43.80
2018-02-05T22:10:14.529Z,28.23
2018-02-05T22:12:42.490Z,29.17
2018-02-05T22:15:10.518Z,34.07
2018-02-05T22:17:38.441Z,34.07
2018-02-05T22:20:06.399Z,36.47
2018-02-05T22:22:34.345Z,36.57
2018-02-05T22:25:02.355Z,41.83
2018-02-05T22:27:30.218Z,45.30
2018-02-05T22:29:58.404Z,72.13
2018-02-05T22:32:26.427Z,68.60
2018-02-05T22:34:54.391Z,65.77
2018-02-05T22:37:22.349Z,67.33
2018-02-05T22:39:50.310Z,48.37
2018-02-05T22:42:18.224Z,31.80
2018-02-05T22:44:47.135Z,43.97
2018-02-05T22:47:15.160Z,33.27
2018-02-05T22:49:43.135Z,43.53
2018-02-05T22:52:11.059Z,42.60
2018-02-05T22:54:38.974Z,45.30
2018-02-05T22:57:06.842Z,98.47
2018-02-05T22:59:34.802Z,78.43
2018-02-05T23:02:03.139Z,67.07
2018-02-05T23:04:31.136Z,49.73
2018-02-05T23:06:59.005Z,58.03
2018-02-05T23:09:27.097Z,55.43
2018-02-05T23:11:55.030Z,66.43
2018-02-05T23:14:22.982Z,92.90
2018-02-05T23:16:50.919Z,91.23
2018-02-05T23:19:18.815Z,85.47
2018-02-05T23:21:46.787Z,82.07
2018-02-05T23:24:14.773Z,77.93
2018-02-05T23:26:42.678Z,84.93
2018-02-05T23:29:10.680Z,80.03
2018-02-05T23:31:38.586Z,76.60
2018-02-05T23:34:06.485Z,70.13
2018-02-05T23:36:34.418Z,69.47
2018-02-05T23:39:02.340Z,71.93
2018-02-05T23:41:30.287Z,56.10
2018-02-05T23:43:58.184Z,49.40
2018-02-05T23:46:26.523Z,52.70
2018-02-05T23:48:54.461Z,69.20
2018-02-05T23:51:22.431Z,70.73
2018-02-05T23:53:50.334Z,62.53
2018-02-05T23:56:18.306Z,49.83
2018-02-05T23:58:46.223Z,72.83
